createdAt,value
2023-04-15T00:00:44.662Z,21.64
2023-04-15T00:01:44.721Z,21.63
2023-04-15T00:02:44.813Z,21.61
2023-04-15T00:03:44.740Z,21.66
2023-04-15T00:04:44.716Z,21.61
2023-04-15T00:05:44.653Z,21.57
2023-04-15T00:06:44.613Z,21.64
2023-04-15T00:07:44.628Z,21.58
2023-04-15T00:08:44.658Z,21.57
2023-04-15T00:09:44.708Z,21.59
2023-04-15T00:10:44.737Z,21.64
2023-04-15T00:11:44.757Z,21.55
2023-04-15T00:12:44.792Z,21.61
2023-04-15T00:13:44.830Z,21.61
2023-04-15T00:14:44.870Z,21.58
2023-04-15T00:15:44.892Z,21.60
2023-04-15T00:16:44.951Z,21.58
2023-04-15T00:17:44.995Z,21.63
2023-04-15T00:18:44.985Z,21.58
2023-04-15T00:19:45.052Z,21.60
2023-04-15T00:20:45.060Z,21.58
2023-04-15T00:21:45.065Z,21.61
2023-04-15T00:22:45.120Z,21.52
2023-04-15T00:23:45.150Z,21.55
2023-04-15T00:24:45.170Z,21.55
2023-04-15T00:25:45.209Z,21.60
2023-04-15T00:26:45.270Z,21.52
2023-04-15T00:27:45.267Z,21.58
2023-04-15T00:28:45.289Z,21.57
2023-04-15T00:29:45.312Z,21.51
2023-04-15T00:30:45.362Z,21.55
2023-04-15T00:31:45.387Z,21.52
2023-04-15T00:32:45.424Z,21.52
2023-04-15T00:33:45.441Z,21.57
2023-04-15T00:34:45.477Z,21.57
2023-04-15T00:35:45.527Z,21.57
2023-04-15T00:36:45.530Z,21.52
2023-04-15T00:37:46.380Z,21.58
2023-04-15T00:38:45.607Z,21.58
2023-04-15T00:39:45.657Z,21.57
2023-04-15T00:40:45.684Z,21.58
2023-04-15T00:41:45.745Z,21.57
2023-04-15T00:42:45.791Z,21.58
2023-04-15T00:43:45.777Z,21.55
2023-04-15T00:44:45.807Z,21.58
2023-04-15T00:45:45.868Z,21.53
2023-04-15T00:46:45.873Z,21.55
2023-04-15T00:47:45.954Z,21.57
2023-04-15T00:48:45.950Z,21.59
2023-04-15T00:49:45.972Z,21.55
2023-04-15T00:50:46.061Z,21.55
2023-04-15T00:51:46.036Z,21.59
2023-04-15T00:52:46.064Z,21.63
2023-04-15T00:53:46.103Z,21.57
2023-04-15T00:54:46.143Z,21.55
2023-04-15T00:55:46.183Z,21.58
2023-04-15T00:56:46.219Z,21.53
2023-04-15T00:57:46.258Z,21.55
2023-04-15T00:58:46.295Z,21.59
2023-04-15T00:59:46.336Z,21.59
2023-04-15T01:00:46.354Z,21.52
2023-04-15T01:01:46.429Z,21.50
2023-04-15T01:02:46.593Z,21.51
2023-04-15T01:03:46.748Z,21.57
2023-04-15T01:04:46.512Z,21.48
2023-04-15T01:05:46.535Z,21.55
2023-04-15T01:06:46.566Z,21.49
2023-04-15T01:07:46.604Z,21.51
2023-04-15T01:08:46.645Z,21.46
2023-04-15T01:09:46.681Z,21.48
2023-04-15T01:10:46.720Z,21.51
2023-04-15T01:11:46.801Z,21.41
2023-04-15T01:12:46.772Z,21.45
2023-04-15T01:13:46.803Z,21.35
2023-04-15T01:14:46.827Z,21.40
2023-04-15T01:15:46.909Z,21.40
2023-04-15T01:16:46.919Z,21.37
2023-04-15T01:17:46.983Z,21.37
2023-04-15T01:18:47.001Z,21.37
2023-04-15T01:19:47.006Z,21.35
2023-04-15T01:20:47.058Z,21.27
2023-04-15T01:21:47.097Z,21.31
2023-04-15T01:22:47.126Z,21.27
2023-04-15T01:23:47.173Z,21.27
2023-04-15T01:24:47.227Z,21.26
2023-04-15T01:25:47.247Z,21.31
2023-04-15T01:26:47.295Z,21.21
2023-04-15T01:27:47.307Z,21.23
2023-04-15T01:28:47.384Z,21.26
2023-04-15T01:29:47.404Z,21.17
2023-04-15T01:30:47.413Z,21.14
2023-04-15T01:31:47.490Z,21.15
2023-04-15T01:32:47.577Z,21.17
2023-04-15T01:33:47.536Z,21.15
2023-04-15T01:34:47.596Z,21.08
2023-04-15T01:35:47.610Z,21.08
2023-04-15T01:36:47.681Z,21.03
2023-04-15T01:37:47.692Z,21.05
2023-04-15T01:38:47.747Z,21.04
2023-04-15T01:39:47.806Z,21.00
2023-04-15T01:40:47.817Z,21.02
2023-04-15T01:41:47.867Z,21.00
2023-04-15T01:42:47.881Z,21.02
2023-04-15T01:43:47.952Z,21.02
2023-04-15T01:44:47.983Z,20.96
2023-04-15T01:45:48.026Z,20.99
2023-04-15T01:46:48.063Z,20.96
2023-04-15T01:47:48.124Z,20.92
2023-04-15T01:48:48.131Z,20.96
2023-04-15T01:49:48.163Z,20.88
2023-04-15T01:50:48.198Z,20.92
2023-04-15T01:51:48.260Z,20.89
2023-04-15T01:52:48.271Z,20.91
2023-04-15T01:53:48.316Z,20.85
2023-04-15T01:54:48.364Z,20.83
2023-04-15T01:55:48.384Z,20.80
2023-04-15T01:56:48.413Z,20.88
2023-04-15T01:57:48.457Z,20.85
2023-04-15T01:58:48.508Z,20.82
2023-04-15T01:59:48.542Z,20.82
2023-04-15T02:00:48.571Z,20.77
2023-04-15T02:01:48.630Z,20.74
2023-04-15T02:02:48.694Z,20.77
2023-04-15T02:03:48.826Z,20.77
2023-04-15T02:04:48.732Z,20.74
2023-04-15T02:05:48.765Z,20.70
2023-04-15T02:06:48.780Z,20.73
2023-04-15T02:07:48.841Z,20.71
2023-04-15T02:08:48.865Z,20.66
2023-04-15T02:09:48.913Z,20.60
2023-04-15T02:10:48.951Z,20.65
2023-04-15T02:11:48.973Z,20.66
2023-04-15T02:12:49.034Z,20.60
2023-04-15T02:13:49.050Z,20.59
2023-04-15T02:14:49.152Z,20.53
2023-04-15T02:15:49.145Z,20.53
2023-04-15T02:16:49.241Z,20.50
2023-04-15T02:17:49.249Z,20.59
2023-04-15T02:18:49.245Z,20.56
2023-04-15T02:19:49.285Z,20.48
2023-04-15T02:20:49.298Z,20.51
2023-04-15T02:21:49.349Z,20.48
2023-04-15T02:22:49.399Z,20.47
2023-04-15T02:23:49.426Z,20.44
2023-04-15T02:24:49.489Z,20.45
2023-04-15T02:25:53.242Z,20.42
2023-04-15T02:26:49.516Z,20.47
2023-04-15T02:27:49.532Z,20.38
2023-04-15T02:28:49.505Z,20.44
2023-04-15T02:29:49.491Z,20.36
2023-04-15T02:30:49.499Z,20.40
2023-04-15T02:31:49.528Z,20.34
2023-04-15T02:32:49.495Z,20.36
2023-04-15T02:33:49.491Z,20.31
2023-04-15T02:34:49.458Z,20.33
2023-04-15T02:35:49.451Z,20.26
2023-04-15T02:36:49.463Z,20.29
2023-04-15T02:37:49.463Z,20.16
2023-04-15T02:38:49.454Z,20.21
2023-04-15T02:39:49.448Z,20.24
2023-04-15T02:40:49.431Z,20.19
2023-04-15T02:41:49.406Z,20.19
2023-04-15T02:42:49.420Z,20.18
2023-04-15T02:43:49.471Z,20.15
2023-04-15T02:44:49.501Z,20.16
2023-04-15T02:45:49.556Z,20.12
2023-04-15T02:46:49.584Z,20.10
2023-04-15T02:47:49.701Z,20.19
2023-04-15T02:48:49.689Z,20.12
2023-04-15T02:49:49.724Z,20.09
2023-04-15T02:50:49.746Z,20.10
2023-04-15T02:51:49.779Z,20.09
2023-04-15T02:52:49.821Z,20.04
2023-04-15T02:53:49.884Z,20.04
2023-04-15T02:54:49.900Z,19.90
2023-04-15T02:55:49.936Z,19.92
2023-04-15T02:56:49.976Z,20.01
2023-04-15T02:57:50.033Z,19.93
2023-04-15T02:58:50.076Z,19.85
2023-04-15T02:59:50.117Z,19.90
2023-04-15T03:00:50.127Z,19.87
2023-04-15T03:01:50.266Z,19.85
2023-04-15T03:02:50.403Z,19.96
2023-04-15T03:03:50.326Z,19.84
2023-04-15T03:04:50.329Z,19.84
2023-04-15T03:05:50.335Z,19.90
2023-04-15T03:06:50.396Z,19.80
2023-04-15T03:07:50.404Z,19.84
2023-04-15T03:08:50.471Z,19.81
2023-04-15T03:09:50.487Z,19.80
2023-04-15T03:10:50.530Z,19.78
2023-04-15T03:11:50.568Z,19.73
2023-04-15T03:12:50.592Z,19.72
2023-04-15T03:13:50.640Z,19.78
2023-04-15T03:14:50.734Z,19.75
2023-04-15T03:15:50.853Z,19.70
2023-04-15T03:16:50.769Z,19.70
2023-04-15T03:17:50.821Z,19.70
2023-04-15T03:18:50.870Z,19.70
2023-04-15T03:19:50.905Z,19.70
2023-04-15T03:20:50.950Z,19.66
2023-04-15T03:21:50.996Z,19.63
2023-04-15T03:22:51.029Z,19.63
2023-04-15T03:23:51.070Z,19.60
2023-04-15T03:24:51.123Z,19.54
2023-04-15T03:25:51.178Z,19.60
2023-04-15T03:26:51.208Z,19.47
2023-04-15T03:27:51.274Z,19.58
2023-04-15T03:28:51.300Z,19.64
2023-04-15T03:29:51.350Z,19.54
2023-04-15T03:30:51.406Z,19.58
2023-04-15T03:31:51.451Z,19.60
2023-04-15T03:32:51.600Z,19.58
2023-04-15T03:33:51.553Z,19.57
2023-04-15T03:34:51.579Z,19.54
2023-04-15T03:35:51.631Z,19.45
2023-04-15T03:36:51.680Z,19.51
2023-04-15T03:37:51.726Z,19.55
2023-04-15T03:38:51.773Z,19.43
2023-04-15T03:39:51.814Z,19.46
2023-04-15T03:40:51.871Z,19.43
2023-04-15T03:41:51.902Z,19.42
2023-04-15T03:42:51.937Z,19.39
2023-04-15T03:43:52.001Z,19.42
2023-04-15T03:44:52.041Z,19.46
2023-04-15T03:45:52.097Z,19.47
2023-04-15T03:46:52.230Z,19.46
2023-04-15T03:47:52.234Z,19.43
2023-04-15T03:48:52.226Z,19.47
2023-04-15T03:49:52.273Z,19.33
2023-04-15T03:50:52.306Z,19.42
2023-04-15T03:51:52.349Z,19.34
2023-04-15T03:52:52.399Z,19.34
2023-04-15T03:53:52.445Z,19.34
2023-04-15T03:54:52.506Z,19.26
2023-04-15T03:55:52.549Z,19.38
2023-04-15T03:56:52.586Z,19.31
2023-04-15T03:57:52.637Z,19.26
2023-04-15T03:58:52.689Z,19.26
2023-04-15T03:59:52.762Z,19.29
2023-04-15T04:00:52.837Z,19.20
2023-04-15T04:01:52.902Z,19.26
2023-04-15T04:02:53.073Z,19.28
2023-04-15T04:03:53.255Z,19.20
2023-04-15T04:04:53.038Z,19.26
2023-04-15T04:05:53.005Z,19.32
2023-04-15T04:06:53.063Z,19.23
2023-04-15T04:07:53.110Z,19.31
2023-04-15T04:08:53.152Z,19.20
2023-04-15T04:09:53.202Z,19.20
2023-04-15T04:10:53.255Z,19.18
2023-04-15T04:11:53.304Z,19.23
2023-04-15T04:12:53.331Z,19.20
2023-04-15T04:13:53.363Z,19.13
2023-04-15T04:14:53.418Z,19.15
2023-04-15T04:15:53.593Z,19.11
2023-04-15T04:16:53.682Z,19.13
2023-04-15T04:17:53.668Z,19.11
2023-04-15T04:18:53.637Z,19.08
2023-04-15T04:19:53.738Z,19.17
2023-04-15T04:20:53.752Z,19.17
2023-04-15T04:21:53.768Z,19.09
2023-04-15T04:22:53.796Z,19.14
2023-04-15T04:23:53.852Z,19.13
2023-04-15T04:24:53.891Z,19.11
2023-04-15T04:25:53.952Z,19.14
2023-04-15T04:26:53.981Z,19.11
2023-04-15T04:27:54.049Z,19.05
2023-04-15T04:28:54.113Z,19.05
2023-04-15T04:29:54.133Z,19.08
2023-04-15T04:30:54.175Z,19.03
2023-04-15T04:31:54.285Z,19.02
2023-04-15T04:32:54.306Z,19.05
2023-04-15T04:33:54.335Z,19.02
2023-04-15T04:34:54.384Z,18.94
2023-04-15T04:35:54.422Z,19.00
2023-04-15T04:36:54.483Z,18.93
2023-04-15T04:37:54.551Z,19.03
2023-04-15T04:38:54.566Z,18.96
2023-04-15T04:39:54.624Z,18.94
2023-04-15T04:40:54.668Z,18.96
2023-04-15T04:41:54.743Z,18.87
2023-04-15T04:42:54.758Z,18.90
2023-04-15T04:43:54.818Z,18.90
2023-04-15T04:44:54.908Z,18.90
2023-04-15T04:45:54.960Z,18.87
2023-04-15T04:46:54.963Z,18.84
2023-04-15T04:47:55.072Z,18.87
2023-04-15T04:48:55.077Z,18.85
2023-04-15T04:49:55.152Z,18.90
2023-04-15T04:50:55.212Z,18.79
2023-04-15T04:51:55.261Z,18.85
2023-04-15T04:52:55.286Z,18.79
2023-04-15T04:53:55.296Z,18.79
2023-04-15T04:54:55.424Z,18.68
2023-04-15T04:55:55.466Z,18.82
2023-04-15T04:56:55.485Z,18.80
2023-04-15T04:57:55.526Z,18.68
2023-04-15T04:58:55.566Z,18.74
2023-04-15T04:59:55.616Z,18.80
2023-04-15T05:00:55.688Z,18.75
2023-04-15T05:01:55.725Z,18.77
2023-04-15T05:02:55.948Z,18.64
2023-04-15T05:03:55.927Z,18.73
2023-04-15T05:04:55.851Z,18.71
2023-04-15T05:05:55.931Z,18.73
2023-04-15T05:06:55.981Z,18.75
2023-04-15T05:07:56.020Z,18.70
2023-04-15T05:08:56.074Z,18.67
2023-04-15T05:09:56.107Z,18.70
2023-04-15T05:10:56.177Z,18.61
2023-04-15T05:11:56.230Z,18.65
2023-04-15T05:12:56.262Z,18.70
2023-04-15T05:13:56.315Z,18.62
2023-04-15T05:14:56.411Z,18.71
2023-04-15T05:15:56.500Z,18.58
2023-04-15T05:16:56.467Z,18.66
2023-04-15T05:17:56.559Z,18.64
2023-04-15T05:18:56.613Z,18.70
2023-04-15T05:19:56.650Z,18.59
2023-04-15T05:20:56.721Z,18.56
2023-04-15T05:21:56.756Z,18.52
2023-04-15T05:22:56.794Z,18.50
2023-04-15T05:23:56.872Z,18.44
2023-04-15T05:24:56.942Z,18.55
2023-04-15T05:25:57.012Z,18.52
2023-04-15T05:26:56.995Z,18.49
2023-04-15T05:27:57.065Z,18.52
2023-04-15T05:28:57.127Z,18.50
2023-04-15T05:29:57.153Z,18.46
2023-04-15T05:30:57.228Z,18.47
2023-04-15T05:31:57.250Z,18.49
2023-04-15T05:32:57.318Z,18.47
2023-04-15T05:33:57.346Z,18.41
2023-04-15T05:34:57.408Z,18.40
2023-04-15T05:35:57.422Z,18.43
2023-04-15T05:36:57.476Z,18.46
2023-04-15T05:37:57.515Z,18.44
2023-04-15T05:38:57.561Z,18.50
2023-04-15T05:39:57.600Z,18.38
2023-04-15T05:40:57.634Z,18.23
2023-04-15T05:41:57.702Z,18.29
2023-04-15T05:42:57.737Z,18.35
2023-04-15T05:43:57.796Z,18.34
2023-04-15T05:44:57.846Z,18.28
2023-04-15T05:45:57.969Z,18.38
2023-04-15T05:46:57.923Z,18.23
2023-04-15T05:47:57.986Z,18.31
2023-04-15T05:48:57.981Z,18.26
2023-04-15T05:49:58.033Z,18.28
2023-04-15T05:50:58.055Z,18.28
2023-04-15T05:51:58.128Z,18.21
2023-04-15T05:52:58.154Z,18.26
2023-04-15T05:53:58.206Z,18.29
2023-04-15T05:54:58.277Z,18.18
2023-04-15T05:55:58.269Z,18.28
2023-04-15T05:56:58.348Z,18.23
2023-04-15T05:57:58.351Z,18.20
2023-04-15T05:58:58.424Z,18.22
2023-04-15T05:59:58.449Z,18.28
2023-04-15T06:00:58.500Z,18.20
2023-04-15T06:01:58.567Z,18.25
2023-04-15T06:02:58.630Z,18.20
2023-04-15T06:03:58.667Z,18.17
2023-04-15T06:04:58.698Z,18.16
2023-04-15T06:05:58.706Z,18.19
2023-04-15T06:06:58.756Z,18.12
2023-04-15T06:07:58.794Z,18.22
2023-04-15T06:08:58.811Z,18.13
2023-04-15T06:09:58.870Z,18.14
2023-04-15T06:10:58.908Z,18.19
2023-04-15T06:11:58.975Z,18.16
2023-04-15T06:12:58.992Z,18.23
2023-04-15T06:13:59.024Z,18.08
2023-04-15T06:15:00.281Z,18.13
2023-04-15T06:15:59.140Z,18.07
2023-04-15T06:16:59.166Z,18.10
2023-04-15T06:17:59.226Z,18.13
2023-04-15T06:18:59.340Z,18.17
2023-04-15T06:19:59.307Z,18.12
2023-04-15T06:20:59.322Z,18.16
2023-04-15T06:21:59.387Z,18.03
2023-04-15T06:22:59.402Z,17.97
2023-04-15T06:23:59.453Z,18.05
2023-04-15T06:24:59.526Z,18.08
2023-04-15T06:25:59.538Z,18.05
2023-04-15T06:26:59.591Z,18.02
2023-04-15T06:27:59.650Z,18.13
2023-04-15T06:28:59.872Z,18.05
2023-04-15T06:29:59.719Z,18.11
2023-04-15T06:30:59.754Z,18.08
2023-04-15T06:31:59.819Z,18.02
2023-04-15T06:32:59.832Z,18.08
2023-04-15T06:33:59.838Z,18.05
2023-04-15T06:34:59.879Z,18.04
2023-04-15T06:35:59.913Z,18.11
2023-04-15T06:36:59.965Z,18.02
2023-04-15T06:37:59.999Z,18.07
2023-04-15T06:39:00.298Z,18.10
2023-04-15T06:40:00.063Z,18.09
2023-04-15T06:41:00.123Z,17.99
2023-04-15T06:42:00.154Z,18.04
2023-04-15T06:43:00.155Z,18.09
2023-04-15T06:44:00.252Z,18.09
2023-04-15T06:45:00.206Z,17.98
2023-04-15T06:46:00.301Z,17.89
2023-04-15T06:47:00.268Z,17.96
2023-04-15T06:48:00.379Z,17.92
2023-04-15T06:49:00.484Z,18.01
2023-04-15T06:50:00.357Z,17.90
2023-04-15T06:51:00.366Z,17.94
2023-04-15T06:52:00.417Z,17.83
2023-04-15T06:53:00.429Z,17.98
2023-04-15T06:54:00.478Z,17.96
2023-04-15T06:55:00.496Z,17.90
2023-04-15T06:56:00.505Z,17.88
2023-04-15T06:57:00.523Z,17.92
2023-04-15T06:58:00.560Z,17.88
2023-04-15T06:59:00.707Z,17.92
2023-04-15T07:00:00.614Z,17.82
2023-04-15T07:01:00.674Z,17.83
2023-04-15T07:02:00.730Z,17.91
2023-04-15T07:03:00.720Z,17.83
2023-04-15T07:04:00.740Z,17.89
2023-04-15T07:05:00.727Z,17.86
2023-04-15T07:06:00.745Z,17.80
2023-04-15T07:07:00.795Z,17.88
2023-04-15T07:08:00.799Z,17.89
2023-04-15T07:09:00.991Z,17.82
2023-04-15T07:10:00.856Z,17.88
2023-04-15T07:11:00.880Z,17.85
2023-04-15T07:12:00.883Z,17.83
2023-04-15T07:13:00.887Z,17.83
2023-04-15T07:14:00.907Z,17.83
2023-04-15T07:15:00.921Z,17.76
2023-04-15T07:16:00.943Z,17.80
2023-04-15T07:17:00.980Z,17.80
2023-04-15T07:18:01.027Z,17.80
2023-04-15T07:19:01.251Z,17.76
2023-04-15T07:20:01.038Z,17.85
2023-04-15T07:21:01.083Z,17.79
2023-04-15T07:22:01.067Z,17.80
2023-04-15T07:23:01.073Z,17.79
2023-04-15T07:24:01.088Z,17.76
2023-04-15T07:25:01.113Z,17.82
2023-04-15T07:26:01.110Z,17.81
2023-04-15T07:27:01.489Z,17.75
2023-04-15T07:28:01.121Z,17.72
2023-04-15T07:29:01.380Z,17.81
2023-04-15T07:30:01.148Z,17.70
2023-04-15T07:31:01.227Z,17.75
2023-04-15T07:32:01.182Z,17.70
2023-04-15T07:33:01.298Z,17.76
2023-04-15T07:34:01.185Z,17.69
2023-04-15T07:35:01.293Z,17.64
2023-04-15T07:36:01.362Z,17.75
2023-04-15T07:37:01.452Z,17.67
2023-04-15T07:38:01.637Z,17.78
2023-04-15T07:39:01.609Z,17.66
2023-04-15T07:40:01.571Z,17.67
2023-04-15T07:41:01.557Z,17.79
2023-04-15T07:42:01.620Z,17.78
2023-04-15T07:43:01.673Z,17.78
2023-04-15T07:44:01.697Z,17.75
2023-04-15T07:45:01.710Z,17.75
2023-04-15T07:46:01.711Z,17.79
2023-04-15T07:47:01.691Z,17.77
2023-04-15T07:48:01.742Z,17.72
2023-04-15T07:49:02.177Z,17.75
2023-04-15T07:50:01.772Z,17.66
2023-04-15T07:51:01.844Z,17.68
2023-04-15T07:52:01.797Z,17.69
2023-04-15T07:53:01.835Z,17.75
2023-04-15T07:54:01.848Z,17.71
2023-04-15T07:55:01.850Z,17.72
2023-04-15T07:56:01.946Z,17.69
2023-04-15T07:57:01.965Z,17.66
2023-04-15T07:58:01.945Z,17.72
2023-04-15T07:59:02.143Z,17.66
2023-04-15T08:00:02.055Z,17.68
2023-04-15T08:01:01.986Z,17.71
2023-04-15T08:02:01.964Z,17.68
2023-04-15T08:03:02.093Z,17.66
2023-04-15T08:04:02.091Z,17.68
2023-04-15T08:05:02.066Z,17.67
2023-04-15T08:06:02.048Z,17.68
2023-04-15T08:07:02.022Z,17.65
2023-04-15T08:08:02.031Z,17.72
2023-04-15T08:09:02.271Z,17.68
2023-04-15T08:10:02.116Z,17.65
2023-04-15T08:11:02.121Z,17.59
2023-04-15T08:12:02.216Z,17.56
2023-04-15T08:13:02.187Z,17.50
2023-04-15T08:14:02.285Z,17.55
2023-04-15T08:15:02.274Z,17.56
2023-04-15T08:16:02.379Z,17.49
2023-04-15T08:17:02.448Z,17.52
2023-04-15T08:18:02.398Z,17.50
2023-04-15T08:19:02.589Z,17.44
2023-04-15T08:20:02.544Z,17.44
2023-04-15T08:21:02.542Z,17.50
2023-04-15T08:22:02.575Z,17.44
2023-04-15T08:23:02.663Z,17.49
2023-04-15T08:24:02.698Z,17.47
2023-04-15T08:25:02.756Z,17.34
2023-04-15T08:26:02.809Z,17.40
2023-04-15T08:27:02.872Z,17.41
2023-04-15T08:28:02.908Z,17.38
2023-04-15T08:29:03.192Z,17.34
2023-04-15T08:30:04.833Z,17.34
2023-04-15T08:31:03.080Z,17.31
2023-04-15T08:32:03.130Z,17.25
2023-04-15T08:33:03.172Z,17.28
2023-04-15T08:34:03.251Z,17.25
2023-04-15T08:35:03.305Z,17.28
2023-04-15T08:36:03.369Z,17.26
2023-04-15T08:37:03.454Z,17.25
2023-04-15T08:38:03.482Z,17.25
2023-04-15T08:39:03.698Z,17.21
2023-04-15T08:40:03.585Z,17.14
2023-04-15T08:41:03.657Z,17.19
2023-04-15T08:42:03.703Z,17.13
2023-04-15T08:43:03.740Z,17.07
2023-04-15T08:44:03.773Z,17.02
2023-04-15T08:45:03.842Z,17.02
2023-04-15T08:46:03.881Z,17.02
2023-04-15T08:47:03.993Z,17.00
2023-04-15T08:48:03.959Z,16.91
2023-04-15T08:49:04.235Z,16.91
2023-04-15T08:50:04.023Z,16.89
2023-04-15T08:51:04.059Z,16.89
2023-04-15T08:52:04.071Z,16.90
2023-04-15T08:53:04.105Z,16.84
2023-04-15T08:54:04.207Z,16.89
2023-04-15T08:55:04.187Z,16.80
2023-04-15T08:56:04.212Z,16.91
2023-04-15T08:57:04.247Z,16.74
2023-04-15T08:58:04.279Z,16.79
2023-04-15T08:59:04.423Z,16.77
2023-04-15T09:00:05.507Z,16.79
2023-04-15T09:01:04.350Z,16.76
2023-04-15T09:02:04.382Z,16.73
2023-04-15T09:03:04.471Z,16.71
2023-04-15T09:04:04.406Z,16.68
2023-04-15T09:05:04.416Z,16.74
2023-04-15T09:06:04.439Z,16.74
2023-04-15T09:07:04.498Z,16.79
2023-04-15T09:08:04.578Z,16.79
2023-04-15T09:09:04.557Z,16.79
2023-04-15T09:10:04.579Z,16.79
2023-04-15T09:11:04.583Z,16.76
2023-04-15T09:12:04.604Z,16.76
2023-04-15T09:13:04.601Z,16.76
2023-04-15T09:14:04.615Z,16.73
2023-04-15T09:15:04.641Z,16.78
2023-04-15T09:16:04.673Z,16.78
2023-04-15T09:17:04.901Z,16.65
2023-04-15T09:18:04.712Z,16.62
2023-04-15T09:19:04.691Z,16.62
2023-04-15T09:20:04.694Z,16.58
2023-04-15T09:21:04.704Z,16.55
2023-04-15T09:22:04.712Z,16.57
2023-04-15T09:23:04.697Z,16.58
2023-04-15T09:24:04.854Z,16.53
2023-04-15T09:25:04.732Z,16.57
2023-04-15T09:26:04.743Z,16.57
2023-04-15T09:27:04.749Z,16.62
2023-04-15T09:28:04.744Z,16.59
2023-04-15T09:29:04.744Z,16.59
2023-04-15T09:30:04.737Z,16.57
2023-04-15T09:31:04.792Z,16.55
2023-04-15T09:32:04.741Z,16.50
2023-04-15T09:33:04.859Z,16.55
2023-04-15T09:34:04.774Z,16.47
2023-04-15T09:35:04.768Z,16.43
2023-04-15T09:36:04.763Z,16.46
2023-04-15T09:37:04.809Z,16.46
2023-04-15T09:38:04.885Z,16.38
2023-04-15T09:39:04.878Z,16.44
2023-04-15T09:40:04.913Z,16.47
2023-04-15T09:41:04.935Z,16.47
2023-04-15T09:42:04.996Z,16.47
2023-04-15T09:43:05.104Z,16.46
2023-04-15T09:44:05.113Z,16.43
2023-04-15T09:45:05.191Z,16.46
2023-04-15T09:46:05.234Z,16.37
2023-04-15T09:47:05.261Z,16.37
2023-04-15T09:48:05.375Z,16.31
2023-04-15T09:49:05.381Z,16.28
2023-04-15T09:50:05.424Z,16.34
2023-04-15T09:51:05.490Z,16.34
2023-04-15T09:52:06.659Z,16.37
2023-04-15T09:53:05.604Z,16.28
2023-04-15T09:54:05.653Z,16.26
2023-04-15T09:55:05.702Z,16.26
2023-04-15T09:56:05.738Z,16.26
2023-04-15T09:57:05.794Z,16.30
2023-04-15T09:58:05.852Z,16.26
2023-04-15T09:59:05.909Z,16.27
2023-04-15T10:00:05.935Z,16.29
2023-04-15T10:01:06.021Z,16.27
2023-04-15T10:02:06.057Z,16.30
2023-04-15T10:03:06.211Z,16.30
2023-04-15T10:04:06.424Z,16.31
2023-04-15T10:05:06.236Z,16.30
2023-04-15T10:06:06.292Z,16.33
2023-04-15T10:07:06.325Z,16.31
2023-04-15T10:08:06.368Z,16.31
2023-04-15T10:09:06.435Z,16.34
2023-04-15T10:10:06.512Z,16.36
2023-04-15T10:11:06.549Z,16.33
2023-04-15T10:12:06.592Z,16.28
2023-04-15T10:13:06.655Z,16.33
2023-04-15T10:14:06.708Z,16.26
2023-04-15T10:15:06.754Z,16.29
2023-04-15T10:16:06.892Z,16.23
2023-04-15T10:17:06.937Z,16.28
2023-04-15T10:18:07.021Z,16.32
2023-04-15T10:19:07.006Z,16.28
2023-04-15T10:20:07.068Z,16.22
2023-04-15T10:21:07.120Z,16.25
2023-04-15T10:22:07.145Z,16.25
2023-04-15T10:23:09.424Z,16.25
2023-04-15T10:24:07.211Z,16.23
2023-04-15T10:25:07.197Z,16.25
2023-04-15T10:26:07.174Z,16.22
2023-04-15T10:27:07.183Z,16.23
2023-04-15T10:28:07.161Z,16.17
2023-04-15T10:29:07.171Z,16.19
2023-04-15T10:30:07.151Z,16.14
2023-04-15T10:31:07.234Z,16.15
2023-04-15T10:32:07.129Z,16.11
2023-04-15T10:33:07.138Z,16.09
2023-04-15T10:34:07.136Z,16.08
2023-04-15T10:35:07.127Z,16.11
2023-04-15T10:36:07.120Z,16.09
2023-04-15T10:37:07.112Z,16.12
2023-04-15T10:38:07.083Z,16.06
2023-04-15T10:39:07.098Z,16.05
2023-04-15T10:40:07.072Z,16.00
2023-04-15T10:41:07.115Z,16.06
2023-04-15T10:42:07.056Z,16.06
2023-04-15T10:43:07.074Z,16.01
2023-04-15T10:44:07.083Z,16.08
2023-04-15T10:45:07.056Z,16.01
2023-04-15T10:46:07.048Z,16.01
2023-04-15T10:47:07.041Z,16.02
2023-04-15T10:48:07.073Z,16.04
2023-04-15T10:49:07.036Z,15.95
2023-04-15T10:50:07.017Z,15.99
2023-04-15T10:51:07.020Z,15.94
2023-04-15T10:52:06.991Z,15.92
2023-04-15T10:53:07.002Z,15.91
2023-04-15T10:54:07.141Z,15.91
2023-04-15T10:55:06.972Z,15.91
2023-04-15T10:56:06.986Z,15.91
2023-04-15T10:57:06.970Z,15.86
2023-04-15T10:58:06.962Z,15.86
2023-04-15T10:59:07.026Z,15.83
2023-04-15T11:00:07.058Z,15.91
2023-04-15T11:01:07.132Z,15.84
2023-04-15T11:02:07.214Z,15.81
2023-04-15T11:03:07.346Z,15.84
2023-04-15T11:04:07.689Z,15.81
2023-04-15T11:05:07.369Z,15.84
2023-04-15T11:06:07.452Z,15.80
2023-04-15T11:07:07.484Z,15.84
2023-04-15T11:08:07.517Z,15.86
2023-04-15T11:09:07.582Z,15.78
2023-04-15T11:10:07.658Z,15.81
2023-04-15T11:11:07.693Z,15.83
2023-04-15T11:12:07.771Z,15.86
2023-04-15T11:13:07.799Z,15.84
2023-04-15T11:14:07.847Z,15.86
2023-04-15T11:15:07.878Z,15.87
2023-04-15T11:16:08.016Z,15.86
2023-04-15T11:17:07.986Z,15.84
2023-04-15T11:18:08.044Z,15.93
2023-04-15T11:19:08.094Z,15.95
2023-04-15T11:20:08.146Z,15.96
2023-04-15T11:21:08.198Z,15.98
2023-04-15T11:22:08.226Z,15.91
2023-04-15T11:23:14.401Z,15.96
2023-04-15T11:24:09.386Z,16.01
2023-04-15T11:25:08.259Z,15.99
2023-04-15T11:26:08.280Z,16.01
2023-04-15T11:27:08.253Z,16.02
2023-04-15T11:28:08.273Z,16.04
2023-04-15T11:29:08.229Z,16.07
2023-04-15T11:30:08.237Z,16.07
2023-04-15T11:31:08.227Z,16.07
2023-04-15T11:32:08.314Z,16.04
2023-04-15T11:33:08.286Z,16.09
2023-04-15T11:34:08.407Z,16.12
2023-04-15T11:35:08.390Z,16.13
2023-04-15T11:36:08.442Z,16.17
2023-04-15T11:37:08.489Z,16.20
2023-04-15T11:38:08.548Z,16.19
2023-04-15T11:39:08.587Z,16.21
2023-04-15T11:40:08.674Z,16.15
2023-04-15T11:41:08.731Z,16.18
2023-04-15T11:42:08.770Z,16.22
2023-04-15T11:43:08.812Z,16.25
2023-04-15T11:44:08.861Z,16.27
2023-04-15T11:45:08.926Z,16.31
2023-04-15T11:46:08.984Z,16.28
2023-04-15T11:47:09.018Z,16.30
2023-04-15T11:48:09.150Z,16.33
2023-04-15T11:49:09.107Z,16.34
2023-04-15T11:50:09.614Z,16.37
2023-04-15T11:51:09.197Z,16.37
2023-04-15T11:52:09.241Z,16.37
2023-04-15T11:53:09.319Z,16.43
2023-04-15T11:54:09.342Z,16.42
2023-04-15T11:55:09.374Z,16.45
2023-04-15T11:56:09.391Z,16.42
2023-04-15T11:57:09.436Z,16.46
2023-04-15T11:58:09.423Z,16.49
2023-04-15T11:59:09.494Z,16.48
2023-04-15T12:00:09.504Z,16.46
2023-04-15T12:01:09.481Z,16.53
2023-04-15T12:02:09.551Z,16.50
2023-04-15T12:03:09.791Z,16.52
2023-04-15T12:04:09.920Z,16.54
2023-04-15T12:05:09.548Z,16.49
2023-04-15T12:06:09.534Z,16.54
2023-04-15T12:07:09.535Z,16.55
2023-04-15T12:08:09.529Z,16.57
2023-04-15T12:09:09.508Z,16.60
2023-04-15T12:10:09.556Z,16.55
2023-04-15T12:11:09.538Z,16.57
2023-04-15T12:12:09.549Z,16.57
2023-04-15T12:13:09.546Z,16.60
2023-04-15T12:14:09.565Z,16.58
2023-04-15T12:15:09.559Z,16.61
2023-04-15T12:16:09.565Z,16.60
2023-04-15T12:17:09.584Z,16.57
2023-04-15T12:18:09.584Z,16.60
2023-04-15T12:19:09.553Z,16.63
2023-04-15T12:20:09.583Z,16.58
2023-04-15T12:21:09.577Z,16.58
2023-04-15T12:22:09.552Z,16.57
2023-04-15T12:23:09.572Z,16.57
2023-04-15T12:24:09.618Z,16.55
2023-04-15T12:25:09.634Z,16.54
2023-04-15T12:26:09.703Z,16.60
2023-04-15T12:27:09.729Z,16.58
2023-04-15T12:28:09.760Z,16.68
2023-04-15T12:29:09.787Z,16.65
2023-04-15T12:30:09.825Z,16.66
2023-04-15T12:31:09.892Z,16.69
2023-04-15T12:32:09.881Z,16.69
2023-04-15T12:33:09.893Z,16.71
2023-04-15T12:34:09.936Z,16.72
2023-04-15T12:35:09.956Z,16.68
2023-04-15T12:36:09.997Z,16.67
2023-04-15T12:37:09.975Z,16.74
2023-04-15T12:38:09.999Z,16.78
2023-04-15T12:39:10.046Z,16.78
2023-04-15T12:40:10.063Z,16.80
2023-04-15T12:41:10.073Z,16.86
2023-04-15T12:42:10.040Z,16.80
2023-04-15T12:43:10.057Z,16.86
2023-04-15T12:44:10.079Z,16.86
2023-04-15T12:45:10.049Z,16.90
2023-04-15T12:46:10.076Z,16.93
2023-04-15T12:47:10.068Z,16.90
2023-04-15T12:48:10.059Z,16.95
2023-04-15T12:49:10.075Z,16.95
2023-04-15T12:50:10.052Z,16.98
2023-04-15T12:51:10.088Z,17.02
2023-04-15T12:52:10.058Z,17.01
2023-04-15T12:53:10.061Z,17.05